Time;durP1;ratioP1;P1;durP2;ratioP2;P2;SDS_P1;SDS_P2;PMS_P1;PMS_P2;Temp;Humidity;BMP_temperature;BMP_pressure;BME280_temperature;BME280_humidity;BME280_pressure;Samples;Min_cycle;Max_cycle;Signal;HPM_P1;HPM_P2
2023/12/11 00:01:34;;;;;;;1.83;1.20;;;;;;;7.72;100.00;99308.38;5000076;28;20209;-74
2023/12/11 00:04:01;;;;;;;4.77;1.20;;;;;;;7.77;100.00;99304.00;4980526;28;20517;-74
2023/12/11 00:06:28;;;;;;;3.23;1.13;;;;;;;7.79;100.00;99315.44;4992093;28;20677;-74
2023/12/11 00:08:55;;;;;;;2.97;1.40;;;;;;;7.69;100.00;99310.09;4995314;28;20203;-73
2023/12/11 00:11:21;;;;;;;3.20;1.20;;;;;;;7.75;100.00;99313.66;4983202;28;20711;-74
2023/12/11 00:13:48;;;;;;;2.13;1.00;;;;;;;7.79;100.00;99317.19;4960031;28;20309;-73
2023/12/11 00:16:17;;;;;;;1.40;1.00;;;;;;;7.72;100.00;99325.94;4970838;28;20659;-74
2023/12/11 00:18:44;;;;;;;3.43;1.40;;;;;;;7.84;100.00;99326.00;4968198;28;20240;-73
2023/12/11 00:21:11;;;;;;;2.63;1.30;;;;;;;7.81;100.00;99331.28;4971522;28;20580;-72
2023/12/11 00:23:37;;;;;;;4.20;1.30;;;;;;;7.81;100.00;99328.63;4970023;28;20745;-72
2023/12/11 00:26:04;;;;;;;2.27;1.33;;;;;;;7.86;100.00;99324.28;4980222;28;20236;-74
2023/12/11 00:28:30;;;;;;;1.93;1.30;;;;;;;7.87;100.00;99326.03;4984602;28;20211;-73
2023/12/11 00:30:57;;;;;;;2.10;1.30;;;;;;;7.77;100.00;99314.56;4986666;28;20216;-73
2023/12/11 00:33:23;;;;;;;3.37;1.33;;;;;;;7.53;100.00;99294.16;4968795;28;20226;-74
2023/12/11 00:35:50;;;;;;;1.83;1.23;;;;;;;7.43;100.00;99315.16;4974624;28;20206;-71
2023/12/11 00:38:16;;;;;;;3.60;1.40;;;;;;;7.25;100.00;99309.72;4976405;28;20205;-73
2023/12/11 00:40:45;;;;;;;4.33;1.30;;;;;;;7.16;100.00;99311.38;4979108;28;20233;-73
2023/12/11 00:43:11;;;;;;;3.80;1.73;;;;;;;6.96;100.00;99312.06;4972153;28;20224;-74
2023/12/11 00:45:38;;;;;;;1.67;1.40;;;;;;;6.86;100.00;99313.72;4970361;28;20652;-73
2023/12/11 00:48:05;;;;;;;3.03;1.27;;;;;;;6.79;100.00;99320.66;4970276;28;20563;-73
2023/12/11 00:50:33;;;;;;;4.00;1.30;;;;;;;6.70;100.00;99330.19;4976335;28;20219;-73
2023/12/11 00:52:59;;;;;;;3.07;1.63;;;;;;;6.69;100.00;99331.06;4973939;28;20240;-73
2023/12/11 00:55:26;;;;;;;1.83;1.30;;;;;;;6.55;100.00;99328.28;4969779;28;20685;-73
2023/12/11 00:57:52;;;;;;;4.03;2.27;;;;;;;6.45;100.00;99315.88;4992422;28;20209;-73
2023/12/11 01:00:19;;;;;;;2.70;1.43;;;;;;;6.63;100.00;99315.22;4973772;28;20198;-73
2023/12/11 01:02:45;;;;;;;2.37;1.30;;;;;;;6.72;100.00;99321.44;4977375;28;20229;-73
2023/12/11 01:05:12;;;;;;;2.63;1.23;;;;;;;6.59;100.00;99317.81;4981985;28;20210;-73
2023/12/11 01:07:39;;;;;;;2.57;1.47;;;;;;;6.57;100.00;99327.44;4975297;28;20349;-73
2023/12/11 01:10:06;;;;;;;1.83;1.13;;;;;;;6.49;100.00;99318.56;4976056;28;20672;-72
2023/12/11 01:12:32;;;;;;;4.63;2.17;;;;;;;6.41;100.00;99320.22;4974701;28;20328;-75
2023/12/11 01:14:59;;;;;;;3.60;1.57;;;;;;;6.48;100.00;99329.94;4994677;28;20202;-74
2023/12/11 01:17:25;;;;;;;3.47;1.43;;;;;;;6.66;100.00;99331.03;4972164;28;20638;-73
2023/12/11 01:20:06;;;;;;;1.90;1.47;;;;;;;6.80;100.00;99326.78;4977605;28;20237;-73
2023/12/11 01:22:33;;;;;;;5.37;1.53;;;;;;;7.02;100.00;99327.94;4980970;28;20225;-73
2023/12/11 01:25:02;;;;;;;2.57;1.43;;;;;;;7.02;100.00;99323.53;4982534;28;20254;-73
2023/12/11 01:27:29;;;;;;;2.23;1.27;;;;;;;7.02;100.00;99323.53;4972563;28;20224;-73
2023/12/11 01:29:56;;;;;;;2.73;1.47;;;;;;;6.98;100.00;99336.66;4972639;28;20197;-73
2023/12/11 01:32:22;;;;;;;2.57;1.40;;;;;;;6.99;100.00;99339.31;4978485;28;20627;-73
2023/12/11 01:34:49;;;;;;;2.23;1.40;;;;;;;7.05;100.00;99346.38;4971868;28;20212;-73
2023/12/11 01:37:16;;;;;;;5.70;1.70;;;;;;;7.11;100.00;99351.69;4975633;28;20208;-73
2023/12/11 01:39:42;;;;;;;4.47;1.57;;;;;;;7.13;100.00;99348.22;4974578;28;20597;-74
2023/12/11 01:42:09;;;;;;;3.37;1.33;;;;;;;7.15;100.00;99346.47;4968183;28;20229;-73
2023/12/11 01:44:36;;;;;;;2.53;1.40;;;;;;;7.17;100.00;99346.50;4966804;28;20885;-73
2023/12/11 01:47:02;;;;;;;2.13;1.57;;;;;;;7.09;100.00;99349.06;4979956;28;20201;-72
2023/12/11 01:49:29;;;;;;;3.27;1.50;;;;;;;7.01;100.00;99345.47;4984252;28;20673;-73
2023/12/11 01:51:55;;;;;;;1.97;1.50;;;;;;;7.00;100.00;99348.09;4988904;28;20318;-73
2023/12/11 01:54:22;;;;;;;2.23;1.17;;;;;;;6.99;100.00;99336.69;4971680;28;20206;-73
2023/12/11 01:56:49;;;;;;;5.20;1.40;;;;;;;6.88;100.00;99340.94;4972525;28;20699;-73
2023/12/11 01:59:15;;;;;;;4.50;1.20;;;;;;;6.78;100.00;99333.78;4974395;28;20237;-74
2023/12/11 02:01:43;;;;;;;1.97;1.30;;;;;;;6.57;100.00;99322.16;4975920;28;20199;-73
2023/12/11 02:04:10;;;;;;;2.57;1.40;;;;;;;6.57;100.00;99334.44;4975610;28;20201;-73
2023/12/11 02:06:37;;;;;;;2.27;1.30;;;;;;;6.41;100.00;99333.38;4980759;28;20206;-73
2023/12/11 02:09:03;;;;;;;4.03;1.30;;;;;;;6.34;100.00;99344.66;4967337;28;20198;-74
2023/12/11 02:11:30;;;;;;;4.87;1.40;;;;;;;6.12;100.00;99324.19;4966650;28;20214;-73
2023/12/11 02:13:57;;;;;;;2.67;1.43;;;;;;;6.01;100.00;99337.19;4971115;28;20236;-73
2023/12/11 02:16:23;;;;;;;2.77;1.10;;;;;;;5.89;100.00;99340.50;4969992;28;20295;-73
2023/12/11 02:18:50;;;;;;;2.27;1.10;;;;;;;5.81;100.00;99341.22;4966536;28;20266;-74
2023/12/11 02:21:16;;;;;;;2.47;1.10;;;;;;;5.69;100.00;99344.53;4970106;28;20200;-72
2023/12/11 02:23:56;;;;;;;1.27;0.93;;;;;;;5.57;100.00;99350.47;4975074;28;20228;-73
2023/12/11 02:26:22;;;;;;;1.73;1.17;;;;;;;5.54;100.00;99355.66;4977508;28;20270;-74
2023/12/11 02:28:49;;;;;;;4.63;1.10;;;;;;;5.65;100.00;99348.88;4969457;28;20555;-73
2023/12/11 02:31:16;;;;;;;3.67;1.20;;;;;;;5.71;100.00;99342.81;4971024;28;20220;-73
2023/12/11 02:33:42;;;;;;;2.00;1.27;;;;;;;5.65;100.00;99334.84;4981097;28;20311;-73
2023/12/11 02:36:09;;;;;;;2.70;1.10;;;;;;;5.54;100.00;99331.16;4982263;28;20275;-73
2023/12/11 02:38:36;;;;;;;1.83;1.40;;;;;;;5.48;100.00;99326.69;4993665;28;20215;-73
2023/12/11 02:41:02;;;;;;;1.40;1.00;;;;;;;5.46;100.00;99332.78;4969411;28;20236;-71
2023/12/11 02:43:29;;;;;;;5.10;1.50;;;;;;;5.50;100.00;99335.47;4971173;28;20254;-74
2023/12/11 02:45:55;;;;;;;3.80;1.30;;;;;;;5.60;100.00;99340.03;4973780;28;20215;-73
2023/12/11 02:48:22;;;;;;;3.47;1.43;;;;;;;5.76;100.00;99330.66;4979875;28;20201;-73
2023/12/11 02:50:48;;;;;;;3.20;1.40;;;;;;;5.80;100.00;99329.81;4970254;28;20297;-73
2023/12/11 02:53:15;;;;;;;1.80;1.20;;;;;;;5.70;100.00;99320.03;4971799;28;20484;-73
2023/12/11 02:55:41;;;;;;;4.60;1.20;;;;;;;5.60;100.00;99333.88;4976683;28;20212;-74
2023/12/11 02:58:08;;;;;;;1.47;1.10;;;;;;;5.60;100.00;99337.41;4973726;28;20258;-73
2023/12/11 03:00:35;;;;;;;1.07;0.97;;;;;;;5.71;100.00;99331.44;4971183;28;20586;-73
2023/12/11 03:03:02;;;;;;;1.20;1.10;;;;;;;5.86;100.00;99326.41;4967906;28;20705;-73
2023/12/11 03:05:29;;;;;;;1.60;1.20;;;;;;;6.11;100.00;99323.31;4976359;28;20298;-73
2023/12/11 03:07:55;;;;;;;3.53;1.27;;;;;;;6.23;100.00;99319.97;4973633;28;20205;-73
2023/12/11 03:10:22;;;;;;;3.87;1.40;;;;;;;6.35;100.00;99328.00;4983421;28;20259;-73
2023/12/11 03:12:49;;;;;;;2.67;1.33;;;;;;;6.34;100.00;99322.72;4979712;28;20236;-74
2023/12/11 03:15:17;;;;;;;3.67;1.30;;;;;;;6.35;100.00;99308.72;4980227;28;20259;-73
2023/12/11 03:17:46;;;;;;;2.37;1.53;;;;;;;6.42;100.00;99326.38;4975065;28;20272;-73
2023/12/11 03:20:12;;;;;;;2.33;1.30;;;;;;;6.49;100.00;99326.44;4974071;28;20333;-71
2023/12/11 03:22:39;;;;;;;2.30;1.67;;;;;;;6.60;100.00;99311.69;4975902;28;20271;-74
2023/12/11 03:25:06;;;;;;;1.87;1.50;;;;;;;6.64;100.00;99314.34;4971031;28;20205;-72
2023/12/11 03:27:33;;;;;;;3.57;2.00;;;;;;;6.66;100.00;99302.09;4969119;28;20212;-74
2023/12/11 03:30:00;;;;;;;4.33;1.90;;;;;;;6.72;100.00;99307.41;4977424;28;20198;-73
2023/12/11 03:32:26;;;;;;;3.43;1.70;;;;;;;6.72;100.00;99315.31;4979824;28;20253;-73
2023/12/11 03:34:53;;;;;;;2.30;1.30;;;;;;;6.81;100.00;99308.44;4972053;28;20206;-74
2023/12/11 03:37:20;;;;;;;3.33;1.30;;;;;;;6.87;100.00;99307.59;4967135;28;20210;-73
2023/12/11 03:39:46;;;;;;;2.33;1.60;;;;;;;6.90;100.00;99308.50;4964388;28;20214;-73
2023/12/11 03:42:12;;;;;;;1.50;1.30;;;;;;;6.90;100.00;99298.00;4976131;28;20224;-73
2023/12/11 03:44:39;;;;;;;1.83;1.50;;;;;;;6.92;100.00;99295.38;4971636;28;20561;-73
2023/12/11 03:47:05;;;;;;;2.30;1.40;;;;;;;6.95;100.00;99297.16;4972990;28;20202;-73
2023/12/11 03:49:32;;;;;;;3.80;1.50;;;;;;;6.96;100.00;99288.38;4963156;28;20688;-73
2023/12/11 03:51:59;;;;;;;1.73;1.30;;;;;;;6.91;100.00;99306.75;4980202;28;20612;-73
2023/12/11 03:54:25;;;;;;;3.17;1.33;;;;;;;6.99;100.00;99291.03;4977293;28;20216;-73
2023/12/11 03:56:52;;;;;;;1.73;1.17;;;;;;;6.91;100.00;99291.84;4972976;28;20210;-73
2023/12/11 03:59:19;;;;;;;3.03;1.40;;;;;;;7.01;100.00;99292.81;4970722;28;20209;-73
2023/12/11 04:01:45;;;;;;;1.90;1.50;;;;;;;6.91;100.00;99289.22;4962715;28;20297;-73
2023/12/11 04:04:12;;;;;;;2.40;1.60;;;;;;;6.88;100.00;99302.34;4967267;28;20207;-74
2023/12/11 04:06:38;;;;;;;2.30;1.43;;;;;;;6.90;100.00;99302.38;4970430;28;20279;-73
2023/12/11 04:09:05;;;;;;;2.33;1.03;;;;;;;6.95;100.00;99294.50;4975757;28;20301;-73
2023/12/11 04:11:32;;;;;;;4.73;1.57;;;;;;;7.00;100.00;99295.44;4969039;28;20218;-74
2023/12/11 04:13:59;;;;;;;2.10;1.30;;;;;;;6.90;100.00;99273.41;4966202;28;20212;-73
2023/12/11 04:16:25;;;;;;;4.10;1.50;;;;;;;6.90;100.00;99279.56;4974353;28;20232;-73
2023/12/11 04:18:52;;;;;;;3.23;1.67;;;;;;;6.91;100.00;99285.72;4968599;28;20568;-74
2023/12/11 04:21:20;;;;;;;5.27;1.63;;;;;;;6.90;100.00;99276.06;4978612;28;20201;-74
2023/12/11 04:23:47;;;;;;;3.77;1.70;;;;;;;6.85;100.00;99281.28;4969406;28;20253;-73
2023/12/11 04:26:13;;;;;;;1.70;1.27;;;;;;;6.85;100.00;99276.00;4975606;28;20227;-73
2023/12/11 04:28:39;;;;;;;2.10;1.67;;;;;;;6.88;100.00;99273.41;4984582;28;20209;-73
2023/12/11 04:31:06;;;;;;;3.07;1.67;;;;;;;6.81;100.00;99268.94;4987617;28;20208;-73
2023/12/11 04:33:36;;;;;;;3.87;1.60;;;;;;;6.90;100.00;99276.06;4976712;28;20622;-73
2023/12/11 04:36:08;;;;;;;3.20;1.50;;;;;;;6.93;100.00;99278.72;4989840;28;20275;-73
2023/12/11 04:38:34;;;;;;;3.27;1.80;;;;;;;6.96;100.00;99275.22;4989784;28;20204;-73
2023/12/11 04:41:01;;;;;;;2.30;1.70;;;;;;;6.96;100.00;99285.75;4985270;28;20208;-75
2023/12/11 04:43:27;;;;;;;4.70;1.90;;;;;;;6.95;100.00;99281.34;4983745;28;20707;-73
2023/12/11 04:45:57;;;;;;;3.20;1.87;;;;;;;6.97;100.00;99271.72;4991456;28;20692;-72
2023/12/11 04:48:24;;;;;;;5.63;2.00;;;;;;;7.04;100.00;99277.06;4983681;28;20229;-73
2023/12/11 04:50:50;;;;;;;3.57;1.77;;;;;;;7.12;100.00;99274.50;4985501;28;20255;-73
2023/12/11 04:53:17;;;;;;;2.73;1.70;;;;;;;7.13;100.00;99271.00;4991194;28;20401;-74
2023/12/11 04:55:43;;;;;;;3.23;2.00;;;;;;;7.14;100.00;99260.47;4985924;28;20297;-73
2023/12/11 04:58:10;;;;;;;2.30;1.80;;;;;;;7.16;100.00;99252.59;4981120;28;20962;-72
2023/12/11 05:00:37;;;;;;;6.20;2.20;;;;;;;7.14;100.00;99249.94;4985227;28;20204;-73
2023/12/11 05:03:03;;;;;;;7.73;2.03;;;;;;;7.10;100.00;99247.28;4983747;28;20634;-73
2023/12/11 05:05:30;;;;;;;6.93;2.10;;;;;;;6.94;100.00;99238.38;4991272;28;20681;-75
2023/12/11 05:07:57;;;;;;;5.60;2.43;;;;;;;6.81;100.00;99234.75;4980372;28;20281;-74
2023/12/11 05:10:23;;;;;;;4.77;1.93;;;;;;;6.59;100.00;99236.25;4985368;28;20207;-74
2023/12/11 05:12:49;;;;;;;3.47;1.83;;;;;;;6.45;100.00;99243.13;4976741;28;20228;-74
2023/12/11 05:15:16;;;;;;;6.13;2.23;;;;;;;6.25;100.00;99248.13;4986947;28;20207;-73
2023/12/11 05:17:43;;;;;;;5.97;2.27;;;;;;;6.08;100.00;99246.19;4981691;28;20962;-73
2023/12/11 05:20:10;;;;;;;11.00;5.23;;;;;;;6.17;100.00;99246.28;4986118;28;20444;-72
2023/12/11 05:22:36;;;;;;;9.77;4.07;;;;;;;6.13;100.00;99239.22;4986292;28;20212;-73
2023/12/11 05:25:03;;;;;;;10.73;4.07;;;;;;;6.13;100.00;99226.09;4982528;28;20626;-73
2023/12/11 05:27:30;;;;;;;11.63;4.50;;;;;;;6.40;100.00;99241.28;4983098;28;20209;-73
2023/12/11 05:29:57;;;;;;;10.90;4.10;;;;;;;6.56;100.00;99245.88;4984943;28;20209;-73
2023/12/11 05:32:23;;;;;;;10.50;3.77;;;;;;;6.72;100.00;99252.16;4978309;28;20234;-73
2023/12/11 05:34:49;;;;;;;10.53;3.47;;;;;;;6.79;100.00;99252.22;4983672;28;20296;-73
2023/12/11 05:37:16;;;;;;;8.23;3.20;;;;;;;6.78;100.00;99242.56;4989018;28;20600;-73
2023/12/11 05:39:42;;;;;;;5.40;2.43;;;;;;;6.90;100.00;99244.47;4979444;28;20205;-73
2023/12/11 05:42:23;;;;;;;4.63;2.20;;;;;;;6.85;100.00;99241.81;5000125;23;20236;-74
2023/12/11 05:44:49;;;;;;;6.53;2.00;;;;;;;6.66;100.00;99238.94;4981522;28;20689;-74
2023/12/11 05:47:16;;;;;;;8.47;2.40;;;;;;;6.47;100.00;99232.63;4988852;28;20385;-74
2023/12/11 05:49:42;;;;;;;4.20;2.63;;;;;;;6.32;100.00;99237.69;4983027;28;20208;-75
2023/12/11 05:52:09;;;;;;;5.53;2.63;;;;;;;6.29;100.00;99228.03;4978461;28;20226;-75
2023/12/11 05:54:35;;;;;;;7.37;2.47;;;;;;;6.22;100.00;99227.06;4985867;28;20208;-74
2023/12/11 05:57:02;;;;;;;4.67;2.50;;;;;;;6.25;100.00;99224.47;4968490;28;20652;-75
2023/12/11 05:59:28;;;;;;;3.97;2.57;;;;;;;6.25;100.00;99227.09;4965782;28;20218;-74
2023/12/11 06:01:55;;;;;;;4.37;2.00;;;;;;;6.22;100.00;99231.44;4970371;28;20288;-75
2023/12/11 06:04:21;;;;;;;4.73;2.00;;;;;;;6.15;100.00;99237.50;4966086;28;20237;-75
2023/12/11 06:06:48;;;;;;;8.97;2.40;;;;;;;6.25;100.00;99231.47;4967663;28;20229;-74
2023/12/11 06:09:14;;;;;;;6.27;2.30;;;;;;;6.22;100.00;99228.81;4954664;28;20202;-74
2023/12/11 06:11:40;;;;;;;7.30;2.43;;;;;;;6.31;100.00;99225.41;4965706;28;20381;-74
2023/12/11 06:14:07;;;;;;;4.93;2.67;;;;;;;6.23;100.00;99222.69;4952717;28;20321;-74
2023/12/11 06:16:33;;;;;;;8.40;3.13;;;;;;;6.14;100.00;99234.00;4951192;28;20294;-75
2023/12/11 06:19:00;;;;;;;7.10;2.80;;;;;;;6.06;100.00;99234.75;4952820;28;20292;-74
2023/12/11 06:21:26;;;;;;;6.37;2.47;;;;;;;6.01;100.00;99237.34;4952968;28;20205;-75
2023/12/11 06:23:53;;;;;;;4.40;2.57;;;;;;;6.08;100.00;99227.78;4956167;28;20263;-75
2023/12/11 06:26:34;;;;;;;4.10;2.03;;;;;;;6.16;100.00;99236.63;4960619;28;20289;-74
2023/12/11 06:29:01;;;;;;;5.80;2.83;;;;;;;6.20;100.00;99228.81;4961923;28;20241;-75
2023/12/11 06:31:28;;;;;;;9.00;3.00;;;;;;;6.25;100.00;99227.09;4968829;28;20207;-75
2023/12/11 06:33:55;;;;;;;8.43;3.03;;;;;;;6.36;100.00;99223.72;4954637;28;20521;-75
2023/12/11 06:36:23;;;;;;;5.43;2.50;;;;;;;6.52;100.00;99231.81;4951397;28;20682;-75
2023/12/11 06:38:52;;;;;;;7.40;2.50;;;;;;;6.45;100.00;99229.09;4962137;28;20292;-74
2023/12/11 06:41:18;;;;;;;4.80;2.43;;;;;;;6.43;100.00;99225.56;4957537;28;20284;-75
2023/12/11 06:43:47;;;;;;;5.77;2.40;;;;;;;6.23;100.00;99215.69;4952993;28;20317;-76
2023/12/11 06:46:16;;;;;;;5.53;2.57;;;;;;;6.16;100.00;99213.84;4952231;28;20209;-76
2023/12/11 06:48:42;;;;;;;11.10;2.43;;;;;;;6.10;100.00;99215.53;4950861;28;20288;-76
2023/12/11 06:51:09;;;;;;;4.63;2.50;;;;;;;6.03;100.00;99214.59;4958491;28;20206;-75
2023/12/11 06:53:35;;;;;;;6.67;2.57;;;;;;;5.98;100.00;99213.63;4952512;28;20233;-76
2023/12/11 06:56:03;;;;;;;5.80;2.40;;;;;;;5.85;100.00;99211.66;4954307;28;20284;-76
2023/12/11 06:58:30;;;;;;;4.00;2.20;;;;;;;5.65;100.00;99207.03;4972604;28;20214;-79
2023/12/11 07:00:58;;;;;;;3.33;2.17;;;;;;;5.59;100.00;99206.94;4952570;28;20206;-73
2023/12/11 07:03:25;;;;;;;5.77;2.10;;;;;;;5.68;100.00;99200.94;4953418;28;20304;-74
2023/12/11 07:05:52;;;;;;;6.07;2.60;;;;;;;5.82;100.00;99209.00;4952933;28;20206;-74
2023/12/11 07:08:19;;;;;;;5.47;2.57;;;;;;;5.86;100.00;99201.19;4934538;28;20313;-70
2023/12/11 07:10:45;;;;;;;5.97;2.77;;;;;;;5.88;100.00;99204.69;4956676;28;20324;-70
2023/12/11 07:13:12;;;;;;;7.80;2.67;;;;;;;5.94;100.00;99198.69;4946407;28;20228;-70
2023/12/11 07:15:39;;;;;;;6.57;2.87;;;;;;;5.96;100.00;99195.19;4946382;28;20218;-70
2023/12/11 07:18:06;;;;;;;4.63;2.50;;;;;;;5.89;100.00;99200.34;4943157;28;20205;-70
2023/12/11 07:20:33;;;;;;;7.77;2.43;;;;;;;5.76;100.00;99193.16;4942409;28;20210;-70
2023/12/11 07:23:01;;;;;;;5.17;1.97;;;;;;;5.69;100.00;99189.56;4961817;28;20258;-73
2023/12/11 07:25:27;;;;;;;4.30;2.07;;;;;;;5.78;100.00;99181.81;4912181;28;20559;-74
2023/12/11 07:27:54;;;;;;;3.53;2.10;;;;;;;5.86;100.00;99177.53;4939202;28;20216;-73
2023/12/11 07:30:20;;;;;;;4.70;1.83;;;;;;;5.87;100.00;99181.03;4946847;28;20206;-74
2023/12/11 07:32:47;;;;;;;4.87;2.27;;;;;;;5.87;100.00;99170.53;4947171;28;20236;-73
2023/12/11 07:35:13;;;;;;;6.70;2.63;;;;;;;5.86;100.00;99174.03;4946066;28;20337;-74
2023/12/11 07:37:41;;;;;;;4.80;1.90;;;;;;;6.16;100.00;99168.28;4946714;28;20722;-69
2023/12/11 07:40:09;;;;;;;4.33;1.60;;;;;;;6.29;100.00;99167.56;4945191;28;20208;-73
2023/12/11 07:42:35;;;;;;;3.37;1.90;;;;;;;6.39;100.00;99171.16;4945868;28;20232;-73
2023/12/11 07:45:06;;;;;;;3.70;1.60;;;;;;;6.34;100.00;99165.84;4961790;28;20202;-73
2023/12/11 07:47:33;;;;;;;4.80;1.93;;;;;;;6.33;100.00;99147.44;4945625;28;20671;-73
2023/12/11 07:50:01;;;;;;;3.37;1.53;;;;;;;6.46;100.00;99149.34;4961556;28;20298;-73
2023/12/11 07:52:29;;;;;;;2.77;1.43;;;;;;;6.44;100.00;99143.19;4947387;28;20608;-73
2023/12/11 07:54:56;;;;;;;6.10;1.43;;;;;;;6.55;100.00;99134.53;4950508;28;20202;-73
2023/12/11 07:57:24;;;;;;;6.13;1.50;;;;;;;6.60;100.00;99124.91;4948584;28;20298;-75
2023/12/11 07:59:51;;;;;;;3.43;1.83;;;;;;;6.69;100.00;99118.84;4951011;28;20209;-72
2023/12/11 08:02:18;;;;;;;2.53;1.20;;;;;;;7.15;100.00;99114.78;4950745;28;20222;-73
2023/12/11 08:04:44;;;;;;;2.57;1.00;;;;;;;7.25;100.00;99106.97;4959965;28;20198;-73
2023/12/11 08:07:13;;;;;;;5.63;1.23;;;;;;;7.45;100.00;99106.19;4954641;28;20217;-72
2023/12/11 08:09:40;;;;;;;4.23;1.30;;;;;;;7.52;100.00;99105.34;4959038;28;20211;-72
2023/12/11 08:12:07;;;;;;;3.47;1.13;;;;;;;7.82;100.00;99099.34;4957492;28;20212;-71
2023/12/11 08:14:33;;;;;;;9.53;1.20;;;;;;;7.89;100.00;99107.25;4954254;28;20288;-72
2023/12/11 08:17:06;;;;;;;4.90;1.30;;;;;;;8.19;100.00;99107.38;4953350;28;20238;-72
2023/12/11 08:19:33;;;;;;;7.27;1.60;;;;;;;8.50;100.00;99112.72;4978906;28;20212;-72
2023/12/11 08:22:00;;;;;;;3.70;1.07;;;;;;;8.75;100.00;99123.28;4953653;28;20202;-73
2023/12/11 08:24:27;;;;;;;2.43;1.07;;;;;;;8.72;100.00;99119.75;4951960;28;20232;-73
2023/12/11 08:26:54;;;;;;;2.97;1.03;;;;;;;8.78;100.00;99125.91;4950944;28;20649;-71
2023/12/11 08:29:25;;;;;;;4.13;1.10;;;;;;;8.83;100.00;99133.88;4952506;28;20738;-73
2023/12/11 08:31:52;;;;;;;3.60;1.10;;;;;;;9.01;100.00;99132.97;4962664;28;20208;-73
2023/12/11 08:34:19;;;;;;;2.87;0.93;;;;;;;8.96;100.00;99138.25;4953271;28;20304;-73
2023/12/11 08:36:46;;;;;;;3.67;1.03;;;;;;;8.99;100.00;99134.75;4957453;28;20210;-73
2023/12/11 08:39:12;;;;;;;3.03;0.90;;;;;;;9.01;100.00;99139.13;4981522;28;20206;-75
2023/12/11 08:41:39;;;;;;;3.07;1.10;;;;;;;8.96;100.00;99137.38;4961859;28;20245;-75
2023/12/11 08:44:05;;;;;;;5.80;1.77;;;;;;;8.89;100.00;99133.00;4955182;28;20339;-73
2023/12/11 08:46:32;;;;;;;3.97;1.10;;;;;;;9.14;100.00;99133.81;4972368;28;20592;-74
2023/12/11 08:48:58;;;;;;;6.67;1.50;;;;;;;9.07;100.00;99128.56;4952903;28;20208;-73
2023/12/11 08:51:25;;;;;;;4.70;1.17;;;;;;;9.18;100.00;99144.38;4950567;28;20218;-70
2023/12/11 08:53:52;;;;;;;2.77;1.40;;;;;;;9.32;100.00;99145.28;4947603;28;20256;-71
2023/12/11 08:56:20;;;;;;;6.30;1.43;;;;;;;9.60;100.00;99147.84;4970577;28;20244;-71
2023/12/11 08:58:46;;;;;;;9.17;1.10;;;;;;;9.63;100.00;99142.56;4959819;28;20199;-71
2023/12/11 09:01:13;;;;;;;5.07;1.20;;;;;;;9.70;100.00;99149.59;4952574;28;20295;-71
2023/12/11 09:03:40;;;;;;;3.93;1.30;;;;;;;9.87;100.00;99149.50;4958096;28;20709;-71
2023/12/11 09:06:06;;;;;;;3.57;1.50;;;;;;;9.95;100.00;99145.94;4957793;28;20261;-71
2023/12/11 09:08:33;;;;;;;7.23;1.10;;;;;;;9.97;100.00;99160.03;4951861;28;20211;-71
2023/12/11 09:11:00;;;;;;;3.70;1.00;;;;;;;10.03;100.00;99149.47;4971949;28;20202;-71
2023/12/11 09:13:26;;;;;;;4.30;1.27;;;;;;;10.14;100.00;99144.13;4946409;28;20232;-71
2023/12/11 09:15:55;;;;;;;5.57;1.60;;;;;;;10.25;100.00;99147.63;4949217;28;20288;-72
2023/12/11 09:18:22;;;;;;;5.37;1.40;;;;;;;10.39;100.00;99150.16;4958542;28;20201;-71
2023/12/11 09:20:48;;;;;;;7.60;1.23;;;;;;;10.56;100.00;99148.31;4953728;28;20206;-71
2023/12/11 09:23:15;;;;;;;4.57;1.40;;;;;;;10.79;100.00;99149.91;4951404;28;20231;-72
2023/12/11 09:25:42;;;;;;;7.43;1.30;;;;;;;10.98;100.00;99159.50;4953457;28;20209;-71
2023/12/11 09:28:08;;;;;;;2.93;1.20;;;;;;;11.12;100.00;99162.00;4952654;28;20221;-72
2023/12/11 09:30:35;;;;;;;10.40;1.63;;;;;;;11.08;100.00;99158.50;4951914;28;20203;-71
2023/12/11 09:33:02;;;;;;;2.70;1.20;;;;;;;11.06;100.00;99162.06;4971786;28;20226;-71
2023/12/11 09:35:28;;;;;;;4.27;1.40;;;;;;;11.05;100.00;99166.50;4963522;28;20203;-71
2023/12/11 09:37:55;;;;;;;5.80;1.30;;;;;;;11.11;100.00;99177.03;4953332;28;20230;-72
2023/12/11 09:40:22;;;;;;;7.33;1.63;;;;;;;11.20;100.00;99174.28;4956121;28;20209;-73
2023/12/11 09:42:50;;;;;;;12.00;1.50;;;;;;;11.29;100.00;99176.88;4950359;28;20618;-72
2023/12/11 09:45:21;;;;;;;8.33;1.40;;;;;;;11.40;100.00;99171.47;4951707;28;20208;-73
2023/12/11 09:47:53;;;;;;;5.40;0.90;;;;;;;11.43;100.00;99187.34;4953058;28;20202;-73
2023/12/11 09:50:37;;;;;;;5.17;1.37;;;;;;;11.59;100.00;99188.06;4950749;28;20221;-74
2023/12/11 09:53:04;;;;;;;4.77;1.20;;;;;;;11.91;100.00;99203.69;4950721;28;20275;-71
2023/12/11 09:55:30;;;;;;;10.97;1.40;;;;;;;12.14;100.00;99206.09;4948220;28;20291;-75
2023/12/11 09:57:58;;;;;;;9.27;1.53;;;;;;;12.38;100.00;99196.91;4973541;28;20288;-73
2023/12/11 10:00:25;;;;;;;3.13;1.33;;;;;;;12.40;100.00;99209.28;4954530;28;20217;-74
2023/12/11 10:02:52;;;;;;;5.70;1.57;;;;;;;12.45;100.00;99218.09;4950760;28;20230;-73
2023/12/11 10:05:25;;;;;;;6.18;1.60;;;;;;;12.38;100.00;99192.50;4950619;28;20510;-82
2023/12/11 10:07:52;;;;;;;4.47;1.50;;;;;;;12.43;100.00;99208.38;4949045;28;20213;-73
2023/12/11 10:10:27;;;;;;;8.00;1.47;;;;;;;12.44;100.00;99205.72;4962805;28;20307;-69
2023/12/11 10:12:54;;;;;;;3.93;0.90;;;;;;;12.61;100.00;99202.81;4942677;28;20239;-70
2023/12/11 10:15:26;;;;;;;10.87;1.63;;;;;;;12.49;100.00;99206.53;4955514;28;20568;-72
2023/12/11 10:18:12;;;;;;;8.20;1.40;;;;;;;12.23;100.00;99196.22;4953292;28;20205;-73
2023/12/11 10:20:41;;;;;;;6.37;1.40;;;;;;;12.28;100.00;99200.59;4951188;28;20209;-72
2023/12/11 10:23:17;;;;;;;5.03;1.70;;;;;;;12.40;100.00;99203.09;4948864;28;20218;-71
2023/12/11 10:25:47;;;;;;;6.53;1.37;;;;;;;12.60;100.00;99193.09;4948794;28;20217;-72
2023/12/11 10:28:18;;;;;;;4.70;1.30;;;;;;;12.68;100.00;99187.66;4949662;28;20221;-71
2023/12/11 10:30:47;;;;;;;3.70;1.17;;;;;;;12.54;100.00;99198.50;4963401;28;20210;-71
2023/12/11 10:33:14;;;;;;;5.27;1.10;;;;;;;12.45;100.00;99191.53;4950775;28;20229;-72
2023/12/11 10:35:43;;;;;;;7.00;1.30;;;;;;;12.46;100.00;99195.94;4954130;28;20606;-70
2023/12/11 10:38:09;;;;;;;4.43;1.10;;;;;;;12.50;100.00;99191.47;4945106;28;20205;-70
2023/12/11 10:40:37;;;;;;;6.57;1.67;;;;;;;12.55;100.00;99198.47;4946352;28;20205;-71
2023/12/11 10:43:04;;;;;;;6.07;1.20;;;;;;;12.56;100.00;99183.41;4949327;28;20706;-72
2023/12/11 10:45:34;;;;;;;4.73;1.23;;;;;;;12.47;100.00;99199.47;4946841;28;20240;-73
2023/12/11 10:48:01;;;;;;;8.87;1.33;;;;;;;12.52;100.00;99197.63;4948927;28;20304;-72
2023/12/11 10:50:27;;;;;;;5.60;1.10;;;;;;;12.58;100.00;99204.63;4948642;28;20206;-72
2023/12/11 10:52:54;;;;;;;7.23;1.23;;;;;;;12.54;100.00;99209.13;4947105;28;20228;-72
2023/12/11 10:55:21;;;;;;;8.47;1.47;;;;;;;12.53;100.00;99207.38;4948064;28;20253;-71
2023/12/11 10:57:49;;;;;;;5.87;1.57;;;;;;;12.58;100.00;99209.94;4946460;28;20207;-71
2023/12/11 11:00:16;;;;;;;9.47;1.50;;;;;;;12.52;100.00;99211.78;4948393;28;20457;-70
2023/12/11 11:02:46;;;;;;;7.90;1.57;;;;;;;12.51;100.00;99209.16;4949927;28;20237;-71
2023/12/11 11:05:14;;;;;;;4.50;1.40;;;;;;;12.50;100.00;99210.06;4951674;28;20825;-72
2023/12/11 11:08:10;;;;;;;4.83;1.47;;;;;;;12.49;100.00;99224.25;4950056;28;20228;-73
2023/12/11 11:10:45;;;;;;;7.07;0.90;;;;;;;12.52;100.00;99218.88;4948281;28;20210;-72
2023/12/11 11:13:27;;;;;;;4.70;1.50;;;;;;;12.55;100.00;99216.19;4947945;28;20231;-73
2023/12/11 11:15:54;;;;;;;6.47;1.20;;;;;;;12.57;100.00;99227.66;4947861;28;20210;-72
2023/12/11 11:18:21;;;;;;;8.50;1.53;;;;;;;12.75;100.00;99218.56;4947865;28;20301;-72
2023/12/11 11:21:26;;;;;;;3.53;1.20;;;;;;;12.73;100.00;99213.25;4948133;28;20250;-73
2023/12/11 11:23:52;;;;;;;5.70;1.00;;;;;;;12.82;100.00;99223.78;4924824;29;20227;-70
2023/12/11 11:26:35;;;;;;;5.30;1.33;;;;;;;12.89;100.00;99221.91;4924877;29;20210;-71
2023/12/11 11:29:03;;;;;;;5.27;0.90;;;;;;;12.97;100.00;99203.19;4936907;28;20206;-71
2023/12/11 11:31:51;;;;;;;7.83;0.93;;;;;;;12.90;100.00;99223.66;4946876;28;20224;-71
2023/12/11 11:34:41;;;;;;;4.60;1.13;;;;;;;12.89;100.00;99235.19;4946359;28;20232;-70